createdAt,value
2023-01-11T00:00:52.823Z,1.7
2023-01-11T00:05:52.833Z,1.7
2023-01-11T00:10:52.837Z,1.5
2023-01-11T00:15:52.933Z,1.5
2023-01-11T00:20:52.859Z,1.3
2023-01-11T00:25:52.867Z,1.3
2023-01-11T00:30:52.948Z,1.3
2023-01-11T00:35:52.932Z,1.4
2023-01-11T00:40:52.893Z,1.7
2023-01-11T00:45:52.931Z,1.3
2023-01-11T00:50:52.919Z,1.3
2023-01-11T00:55:52.935Z,1.4
2023-01-11T01:00:52.932Z,1.3
2023-01-11T01:05:52.961Z,1.4
2023-01-11T01:10:52.949Z,1.2
2023-01-11T01:15:53.026Z,1.2
2023-01-11T01:20:52.970Z,1.4
2023-01-11T01:25:52.985Z,1.1
2023-01-11T01:30:53.042Z,1.1
2023-01-11T01:35:53.008Z,1.0
2023-01-11T01:40:53.021Z,0.9
2023-01-11T01:45:53.019Z,1.1
2023-01-11T01:50:53.031Z,0.9
2023-01-11T01:55:53.063Z,1.0
2023-01-11T02:00:53.054Z,1.0
2023-01-11T02:05:53.068Z,1.2
2023-01-11T02:10:53.088Z,0.8
2023-01-11T02:15:53.092Z,0.9
2023-01-11T02:20:53.094Z,0.8
2023-01-11T02:25:53.099Z,0.9
2023-01-11T02:30:53.130Z,0.8
2023-01-11T02:35:53.116Z,1.1
2023-01-11T02:40:53.133Z,0.8
2023-01-11T02:45:53.140Z,0.8
2023-01-11T02:50:53.172Z,0.7
2023-01-11T02:55:53.157Z,0.8
2023-01-11T03:00:53.182Z,0.8
2023-01-11T03:05:53.244Z,0.7
2023-01-11T03:10:53.184Z,0.7
2023-01-11T03:15:53.220Z,0.6
2023-01-11T03:20:53.207Z,0.9
2023-01-11T03:25:53.243Z,0.7
2023-01-11T03:30:53.235Z,0.8
2023-01-11T03:35:53.241Z,0.7
2023-01-11T03:40:53.253Z,0.5
2023-01-11T03:45:53.265Z,0.6
2023-01-11T03:50:53.283Z,0.5
2023-01-11T03:55:53.277Z,0.7
2023-01-11T04:00:53.392Z,0.6
2023-01-11T04:05:53.292Z,0.5
2023-01-11T04:10:53.314Z,0.5
2023-01-11T04:15:53.336Z,0.5
2023-01-11T04:20:53.360Z,0.5
2023-01-11T04:25:53.338Z,0.5
2023-01-11T04:30:53.355Z,0.4
2023-01-11T04:35:53.357Z,0.4
2023-01-11T04:40:53.366Z,0.5
2023-01-11T04:45:53.432Z,0.6
2023-01-11T04:50:53.393Z,0.4
2023-01-11T04:55:53.397Z,0.5
2023-01-11T05:00:53.442Z,0.5
2023-01-11T05:05:53.443Z,0.5
2023-01-11T05:10:53.424Z,0.4
2023-01-11T05:15:53.440Z,0.3
2023-01-11T05:20:53.443Z,0.5
2023-01-11T05:25:53.456Z,0.5
2023-01-11T05:30:53.462Z,0.4
2023-01-11T05:35:54.543Z,0.4
2023-01-11T05:40:53.475Z,0.3
2023-01-11T05:45:53.519Z,0.4
2023-01-11T05:50:53.505Z,0.4
2023-01-11T05:55:53.512Z,0.3
2023-01-11T06:00:53.517Z,0.3
2023-01-11T06:05:53.533Z,0.2
2023-01-11T06:10:53.546Z,0.3
2023-01-11T06:15:53.552Z,0.4
2023-01-11T06:20:53.564Z,0.4
2023-01-11T06:25:53.572Z,0.4
2023-01-11T06:30:53.607Z,0.4
2023-01-11T06:35:53.597Z,0.4
2023-01-11T06:40:53.598Z,0.3
2023-01-11T06:45:53.648Z,0.4
2023-01-11T06:50:53.615Z,0.3
2023-01-11T06:55:53.631Z,0.4
2023-01-11T07:00:53.682Z,0.3
2023-01-11T07:05:53.688Z,0.4
2023-01-11T07:10:53.682Z,0.3
2023-01-11T07:15:53.703Z,0.4
2023-01-11T07:20:53.679Z,0.3
2023-01-11T07:25:53.773Z,0.3
2023-01-11T07:30:59.140Z,0.3
2023-01-11T07:35:53.766Z,0.3
2023-01-11T07:40:53.727Z,0.2
2023-01-11T07:45:53.970Z,0.3
2023-01-11T07:50:53.838Z,0.2
2023-01-11T07:55:53.793Z,0.3
2023-01-11T08:00:53.766Z,0.4
2023-01-11T08:05:53.773Z,0.3
2023-01-11T08:10:53.801Z,0.3
2023-01-11T08:15:53.838Z,0.3
2023-01-11T08:20:53.803Z,0.4
2023-01-11T08:25:53.802Z,0.4
2023-01-11T08:30:53.852Z,0.5
2023-01-11T08:35:53.833Z,0.5
2023-01-11T08:40:53.840Z,0.4
2023-01-11T08:45:53.851Z,0.5
2023-01-11T08:50:53.872Z,0.4
2023-01-11T08:55:53.875Z,0.5
2023-01-11T09:00:53.881Z,0.5
2023-01-11T09:05:53.898Z,0.5
2023-01-11T09:10:53.885Z,0.6
2023-01-11T09:15:53.958Z,0.5
2023-01-11T09:20:53.927Z,0.5
2023-01-11T09:25:53.921Z,0.7
2023-01-11T09:30:54.027Z,0.6
2023-01-11T09:35:53.947Z,0.8
2023-01-11T09:40:53.967Z,0.7
2023-01-11T09:45:53.966Z,0.5
2023-01-11T09:50:54.013Z,0.6
2023-01-11T09:55:53.990Z,0.6
2023-01-11T10:00:54.088Z,0.6
2023-01-11T10:05:54.025Z,0.6
2023-01-11T10:18:40.560Z,0.6
2023-01-11T10:20:54.038Z,0.7
2023-01-11T10:25:54.053Z,0.7
2023-01-11T10:30:54.074Z,0.7
2023-01-11T10:35:54.065Z,0.9
2023-01-11T10:40:54.079Z,0.8
2023-01-11T10:45:54.160Z,0.8
2023-01-11T10:50:54.087Z,1.0
2023-01-11T10:55:54.123Z,0.8
2023-01-11T11:00:54.261Z,0.8
2023-01-11T11:05:54.262Z,0.6
2023-01-11T11:10:54.130Z,0.7
2023-01-11T11:15:54.144Z,0.8
2023-01-11T11:20:54.161Z,0.7
2023-01-11T11:25:54.160Z,0.7
2023-01-11T11:30:54.171Z,0.8
2023-01-11T11:35:54.182Z,0.7
2023-01-11T11:40:54.192Z,0.8
2023-01-11T11:45:54.230Z,0.9
2023-01-11T11:50:54.211Z,1.1
2023-01-11T11:55:54.232Z,0.8
2023-01-11T12:00:54.256Z,1.1
2023-01-11T12:05:54.247Z,1.1
2023-01-11T12:10:54.261Z,1.1
2023-01-11T12:15:54.255Z,0.8
2023-01-11T12:20:54.276Z,1.0
2023-01-11T12:25:54.284Z,1.0
2023-01-11T12:30:54.359Z,1.2
2023-01-11T12:35:54.297Z,1.2
2023-01-11T12:40:54.335Z,1.3
2023-01-11T12:45:54.332Z,1.1
2023-01-11T12:50:54.331Z,1.0
2023-01-11T12:55:54.334Z,1.2
2023-01-11T13:00:54.351Z,1.3
2023-01-11T13:05:54.353Z,1.2
2023-01-11T13:10:54.363Z,1.2
2023-01-11T13:15:54.386Z,1.2
2023-01-11T13:21:02.132Z,1.2
2023-01-11T13:25:54.397Z,1.3
2023-01-11T13:30:54.450Z,1.3
2023-01-11T13:35:54.425Z,1.4
2023-01-11T13:40:54.426Z,1.2
2023-01-11T13:45:54.532Z,1.1
2023-01-11T13:50:54.452Z,1.3
2023-01-11T13:55:54.460Z,1.5
2023-01-11T14:00:54.472Z,1.6
2023-01-11T14:05:54.478Z,1.4
2023-01-11T14:10:54.498Z,1.6
2023-01-11T14:15:54.534Z,1.5
2023-01-11T14:20:54.515Z,1.6
2023-01-11T14:25:54.511Z,1.4
2023-01-11T14:30:55.273Z,1.6
2023-01-11T14:35:54.539Z,1.9
2023-01-11T14:40:54.545Z,1.4
2023-01-11T14:45:54.555Z,1.4
2023-01-11T14:50:54.574Z,1.5
2023-01-11T14:55:54.581Z,1.6
2023-01-11T15:00:54.588Z,1.5
2023-01-11T15:05:54.593Z,1.4
2023-01-11T15:10:54.601Z,1.4
2023-01-11T15:15:54.626Z,1.3
2023-01-11T15:20:54.645Z,1.5
2023-01-11T15:25:54.649Z,1.6
2023-01-11T15:30:54.644Z,1.4
2023-01-11T15:35:54.652Z,1.5
2023-01-11T15:40:54.664Z,1.5
2023-01-11T15:45:54.687Z,1.3
2023-01-11T15:50:54.689Z,1.5
2023-01-11T15:55:54.811Z,1.4
2023-01-11T16:00:54.811Z,1.6
2023-01-11T16:05:54.710Z,1.2
2023-01-11T16:10:54.725Z,1.4
2023-01-11T16:15:54.873Z,1.3
2023-01-11T16:20:54.756Z,1.5
2023-01-11T16:25:54.754Z,1.4
2023-01-11T16:30:54.891Z,1.4
2023-01-11T16:35:54.776Z,1.3
2023-01-11T16:40:54.778Z,1.6
2023-01-11T16:45:54.871Z,2.0
2023-01-11T16:50:54.803Z,1.4
2023-01-11T16:55:54.812Z,1.6
2023-01-11T17:00:54.851Z,1.7
2023-01-11T17:05:54.834Z,1.8
2023-01-11T17:10:54.842Z,1.6
2023-01-11T17:15:54.847Z,2.0
2023-01-11T17:20:54.854Z,1.9
2023-01-11T17:25:54.877Z,2.0
2023-01-11T17:30:54.883Z,1.9
2023-01-11T17:35:54.896Z,1.8
2023-01-11T17:40:54.904Z,2.1
2023-01-11T17:45:55.000Z,1.7
2023-01-11T17:50:54.926Z,1.6
2023-01-11T17:55:54.938Z,1.8
2023-01-11T18:00:54.988Z,2.1
2023-01-11T18:05:54.975Z,2.3
2023-01-11T18:10:54.963Z,1.8
2023-01-11T18:15:54.976Z,1.9
2023-01-11T18:20:54.983Z,2.0
2023-01-11T18:25:54.986Z,1.8
2023-01-11T18:30:55.120Z,1.8
2023-01-11T18:35:55.014Z,2.0
2023-01-11T18:40:55.023Z,1.8
2023-01-11T18:45:55.074Z,2.0
2023-01-11T18:50:55.048Z,1.6
2023-01-11T18:55:55.051Z,2.1
2023-01-11T19:00:55.076Z,1.9
2023-01-11T19:05:55.071Z,1.8
2023-01-11T19:10:55.080Z,1.7
2023-01-11T19:15:55.182Z,1.8
2023-01-11T19:20:55.100Z,1.8
2023-01-11T19:25:55.109Z,1.4
2023-01-11T19:30:55.175Z,2.0
2023-01-11T19:35:55.132Z,1.8
2023-01-11T19:40:55.152Z,2.0
2023-01-11T19:45:55.202Z,1.9
2023-01-11T19:50:55.154Z,1.9
2023-01-11T19:55:55.182Z,1.8
2023-01-11T20:00:55.172Z,1.9
2023-01-11T20:05:55.182Z,1.5
2023-01-11T20:10:55.207Z,1.8
2023-01-11T20:15:55.264Z,1.8
2023-01-11T20:20:55.208Z,1.6
2023-01-11T20:25:55.545Z,1.8
2023-01-11T20:30:55.284Z,1.8
2023-01-11T20:35:55.258Z,1.9
2023-01-11T20:40:55.250Z,1.8
2023-01-11T20:45:55.259Z,1.4
2023-01-11T20:50:55.277Z,1.6
2023-01-11T20:55:55.298Z,1.7
2023-01-11T21:00:55.296Z,1.7
2023-01-11T21:05:55.311Z,1.9
2023-01-11T21:10:55.399Z,1.5
2023-01-11T21:15:55.327Z,1.8
2023-01-11T21:20:55.339Z,1.5
2023-01-11T21:25:55.340Z,1.4
2023-01-11T21:30:55.351Z,1.8
2023-01-11T21:35:55.370Z,1.7
2023-01-11T21:40:55.367Z,1.5
2023-01-11T21:45:55.398Z,1.5
2023-01-11T21:50:55.396Z,1.3
2023-01-11T21:55:55.399Z,1.5
2023-01-11T22:00:55.452Z,1.5
2023-01-11T22:05:55.418Z,1.8
2023-01-11T22:10:55.423Z,1.3
2023-01-11T22:15:55.480Z,1.4
2023-01-11T22:20:55.447Z,1.7
2023-01-11T22:25:55.466Z,1.4
2023-01-11T22:30:55.499Z,1.4
2023-01-11T22:35:55.484Z,1.5
2023-01-11T22:40:55.491Z,1.3
2023-01-11T22:45:55.535Z,1.2
2023-01-11T22:50:55.511Z,1.4
2023-01-11T22:55:55.526Z,1.3
2023-01-11T23:00:55.544Z,1.3
2023-01-11T23:05:55.539Z,1.6
2023-01-11T23:10:55.544Z,1.5
2023-01-11T23:15:55.555Z,1.2
2023-01-11T23:20:55.568Z,1.0
2023-01-11T23:25:55.621Z,1.3
2023-01-11T23:30:55.592Z,1.2
2023-01-11T23:35:55.599Z,1.1
2023-01-11T23:40:55.625Z,1.1
2023-01-11T23:45:55.628Z,1.0
2023-01-11T23:50:55.625Z,1.1
2023-01-11T23:55:55.634Z,1.1
